Time;durP1;ratioP1;P1;durP2;ratioP2;P2;SDS_P1;SDS_P2;PMS_P1;PMS_P2;Temp;Humidity;BMP_temperature;BMP_pressure;BME280_temperature;BME280_humidity;BME280_pressure;Samples;Min_cycle;Max_cycle;Signal;HPM_P1;HPM_P2
2022/10/26 00:01:06;;;;;;;11.57;6.50;;;19.40;60.80;;;;;;5095288;28;20103;-81
2022/10/26 00:03:32;;;;;;;10.18;6.18;;;19.40;61.10;;;;;;5095087;28;20032;-80
2022/10/26 00:06:18;;;;;;;10.55;6.05;;;19.40;61.90;;;;;;5093796;28;20012;-80
2022/10/26 00:08:45;;;;;;;9.52;5.93;;;19.50;61.10;;;;;;5076793;28;20024;-80
2022/10/26 00:11:11;;;;;;;10.02;6.22;;;19.50;60.80;;;;;;5088493;28;20480;-82
2022/10/26 00:13:38;;;;;;;11.25;7.20;;;19.50;60.70;;;;;;5100370;28;20016;-82
2022/10/26 00:16:22;;;;;;;10.23;6.80;;;19.60;61.10;;;;;;5081596;28;20416;-81
2022/10/26 00:18:47;;;;;;;13.25;7.45;;;19.50;61.50;;;;;;5094834;28;20031;-80
2022/10/26 00:21:13;;;;;;;8.98;6.03;;;19.40;61.60;;;;;;5093731;28;20024;-81
2022/10/26 00:23:39;;;;;;;10.65;6.50;;;19.50;61.30;;;;;;5115320;28;20534;-82
2022/10/26 00:26:06;;;;;;;10.50;5.60;;;19.60;60.90;;;;;;5096446;28;20019;-79
2022/10/26 00:28:32;;;;;;;8.82;5.68;;;19.50;61.00;;;;;;5108505;28;20027;-79
2022/10/26 00:31:02;;;;;;;10.05;6.65;;;19.30;61.30;;;;;;5103671;28;20038;-82
2022/10/26 00:33:29;;;;;;;;;;;19.20;61.20;;;;;;5096895;28;20412;-80
2022/10/26 00:35:55;;;;;;;8.85;6.28;;;19.20;61.90;;;;;;5091828;28;19904;-80
2022/10/26 00:38:21;;;;;;;9.00;5.72;;;19.40;61.00;;;;;;5093633;28;20077;-81
2022/10/26 00:40:47;;;;;;;11.02;6.53;;;19.30;60.60;;;;;;5094109;28;20024;-81
2022/10/26 00:43:36;;;;;;;9.13;6.07;;;19.40;60.10;;;;;;5086104;28;20035;-81
2022/10/26 00:46:05;;;;;;;11.23;6.25;;;19.40;60.20;;;;;;5085786;28;20031;-80
2022/10/26 00:48:37;;;;;;;10.45;6.07;;;19.20;60.10;;;;;;5093965;28;20024;-81
2022/10/26 00:51:07;;;;;;;10.57;5.97;;;19.10;60.30;;;;;;5093212;28;20024;-82
2022/10/26 00:53:34;;;;;;;9.25;5.70;;;19.00;61.50;;;;;;5076569;28;20016;-81
2022/10/26 00:56:00;;;;;;;11.30;6.13;;;19.10;61.50;;;;;;5094247;28;20028;-82
2022/10/26 00:58:26;;;;;;;9.40;5.63;;;19.10;60.50;;;;;;5097090;28;20012;-84
2022/10/26 01:00:52;;;;;;;9.75;5.45;;;19.10;60.00;;;;;;5076354;28;20519;-81
2022/10/26 01:03:19;;;;;;;9.30;5.82;;;19.10;59.80;;;;;;5103213;28;20030;-83
2022/10/26 01:05:46;;;;;;;9.50;5.70;;;19.10;59.90;;;;;;5081968;28;20028;-82
2022/10/26 01:08:14;;;;;;;8.80;5.30;;;19.00;59.70;;;;;;5100314;28;20035;-81
2022/10/26 01:10:41;;;;;;;9.18;5.43;;;19.00;59.70;;;;;;5109155;28;20073;-82
2022/10/26 01:13:08;;;;;;;7.78;5.70;;;18.90;59.70;;;;;;5095933;28;20030;-79
2022/10/26 01:15:38;;;;;;;10.38;6.10;;;18.80;60.10;;;;;;5092356;28;20409;-83
2022/10/26 01:18:14;;;;;;;8.45;5.38;;;18.70;60.20;;;;;;5096386;28;20044;-81
2022/10/26 01:20:43;;;;;;;8.15;5.68;;;18.70;60.80;;;;;;5114205;28;20116;-82
2022/10/26 01:23:19;;;;;;;9.85;5.32;;;18.70;60.10;;;;;;5097085;28;20051;-81
2022/10/26 01:25:51;;;;;;;7.93;5.30;;;18.60;59.90;;;;;;5110348;28;20465;-82
2022/10/26 01:28:47;;;;;;;8.90;5.38;;;18.50;59.90;;;;;;5097338;28;20027;-84
2022/10/26 01:31:19;;;;;;;9.10;5.97;;;18.50;60.30;;;;;;5094026;28;20073;-84
2022/10/26 01:34:02;;;;;;;9.10;5.85;;;18.50;60.00;;;;;;5097135;28;20039;-85
2022/10/26 01:37:08;;;;;;;8.60;5.10;;;18.40;59.80;;;;;;5104102;28;20020;-84
2022/10/26 01:39:44;;;;;;;9.32;5.65;;;18.40;59.80;;;;;;5004964;28;20106;-83
2022/10/26 01:42:12;;;;;;;12.98;5.45;;;18.40;60.00;;;;;;5002464;28;20065;-84
2022/10/26 01:44:45;;;;;;;8.90;5.47;;;18.40;60.10;;;;;;5005764;28;20049;-82
2022/10/26 01:47:14;;;;;;;9.55;5.85;;;18.50;60.80;;;;;;4989393;28;20056;-83
2022/10/26 01:49:52;;;;;;;7.88;5.35;;;18.50;60.50;;;;;;4995044;28;20497;-81
2022/10/26 01:52:19;;;;;;;7.47;5.10;;;18.50;60.50;;;;;;4995412;28;20162;-83
2022/10/26 01:54:44;;;;;;;8.75;4.97;;;18.60;60.30;;;;;;5026518;28;20022;-82
2022/10/26 01:57:15;;;;;;;7.57;5.45;;;18.60;60.50;;;;;;5011671;28;20029;-84
2022/10/26 02:00:02;;;;;;;7.55;4.78;;;18.70;60.60;;;;;;4995463;28;20116;-84
2022/10/26 02:02:39;;;;;;;8.13;4.90;;;18.70;60.00;;;;;;5011267;28;20026;-83
2022/10/26 02:05:34;;;;;;;8.98;5.10;;;18.60;59.60;;;;;;5002214;28;20129;-83
2022/10/26 02:08:08;;;;;;;10.25;5.25;;;18.40;59.50;;;;;;4949445;29;20032;-84
2022/10/26 02:10:45;;;;;;;8.15;5.32;;;18.30;59.50;;;;;;4951326;28;20023;-83
2022/10/26 02:13:29;;;;;;;8.48;5.40;;;18.30;59.90;;;;;;4953250;29;20047;-84
2022/10/26 02:16:07;;;;;;;9.50;4.82;;;18.00;60.00;;;;;;5004088;28;20030;-84
2022/10/26 02:18:47;;;;;;;7.82;5.07;;;18.00;60.00;;;;;;4995144;28;20045;-84
2022/10/26 02:21:20;;;;;;;9.18;5.75;;;18.10;60.10;;;;;;5011187;28;20500;-81
2022/10/26 02:23:48;;;;;;;12.25;4.97;;;18.10;60.00;;;;;;5011077;28;20132;-84
2022/10/26 02:26:18;;;;;;;7.55;5.00;;;18.20;59.90;;;;;;5011159;28;20053;-85
2022/10/26 02:28:48;;;;;;;7.55;5.40;;;18.00;59.40;;;;;;4997585;28;20038;-84
2022/10/26 02:31:15;;;;;;;5.90;4.15;;;18.00;59.80;;;;;;5010763;28;20050;-84
2022/10/26 02:33:46;;;;;;;9.95;4.57;;;18.00;60.70;;;;;;4995301;28;20167;-84
2022/10/26 02:36:16;;;;;;;11.18;4.85;;;17.70;62.70;;;;;;4994508;28;20377;-84
2022/10/26 02:38:45;;;;;;;8.20;5.63;;;17.70;61.70;;;;;;5011797;28;20034;-86
2022/10/26 02:41:12;;;;;;;7.68;5.22;;;17.70;61.00;;;;;;4994526;28;20108;-86
2022/10/26 02:43:46;;;;;;;7.30;4.78;;;17.80;60.30;;;;;;5011305;28;20040;-84
2022/10/26 02:46:14;;;;;;;9.40;4.93;;;17.90;61.10;;;;;;5110419;28;20399;-85
2022/10/26 02:48:40;;;;;;;8.88;4.88;;;17.90;60.20;;;;;;5095785;28;20069;-85
2022/10/26 02:51:31;;;;;;;8.60;5.47;;;17.80;60.20;;;;;;5080628;28;20020;-85
2022/10/26 02:54:03;;;;;;;9.13;5.40;;;17.90;59.90;;;;;;5077442;28;20028;-85
2022/10/26 02:56:38;;;;;;;6.80;4.93;;;17.80;60.00;;;;;;5093371;28;20026;-86
2022/10/26 02:59:06;;;;;;;10.80;5.65;;;17.90;60.20;;;;;;5107253;28;20035;-85
2022/10/26 03:01:33;;;;;;;9.10;5.38;;;17.90;61.10;;;;;;5092832;28;20012;-85
2022/10/26 03:03:59;;;;;;;8.73;4.95;;;17.90;60.40;;;;;;5092085;28;20032;-85
2022/10/26 03:06:25;;;;;;;8.10;5.10;;;17.90;60.20;;;;;;5095293;28;20378;-83
2022/10/26 03:08:51;;;;;;;9.82;6.18;;;18.00;60.60;;;;;;5092675;28;20405;-86
2022/10/26 03:11:17;;;;;;;9.55;6.15;;;18.10;62.00;;;;;;5106427;28;20462;-86
2022/10/26 03:13:45;;;;;;;11.85;6.72;;;18.20;63.00;;;;;;5117276;28;20042;-91
2022/10/26 03:16:11;;;;;;;11.32;6.85;;;18.30;62.50;;;;;;5116045;28;20119;-85
2022/10/26 03:18:36;;;;;;;15.18;6.95;;;18.50;62.50;;;;;;5115762;28;20485;-84
2022/10/26 03:21:02;;;;;;;13.85;6.95;;;18.60;62.30;;;;;;5101805;28;20027;-85
2022/10/26 03:23:28;;;;;;;11.55;7.55;;;18.70;62.40;;;;;;5093282;28;20040;-85
2022/10/26 03:25:57;;;;;;;10.52;7.30;;;18.70;62.40;;;;;;5102247;28;20026;-86
2022/10/26 03:28:23;;;;;;;12.63;7.25;;;18.80;62.60;;;;;;5117047;28;20027;-86
2022/10/26 03:30:49;;;;;;;12.40;7.45;;;18.90;62.50;;;;;;5113774;28;20015;-87
2022/10/26 03:33:15;;;;;;;11.95;7.25;;;19.00;62.10;;;;;;5094637;28;20105;-86
2022/10/26 03:35:40;;;;;;;11.45;7.18;;;19.00;62.50;;;;;;5096097;28;20020;-86
2022/10/26 03:38:06;;;;;;;11.18;6.63;;;19.10;62.00;;;;;;5096648;28;20028;-85
2022/10/26 03:40:32;;;;;;;10.50;5.90;;;19.20;61.70;;;;;;5093526;28;20015;-85
2022/10/26 03:42:57;;;;;;;8.20;5.88;;;19.20;61.10;;;;;;5097023;28;20492;-84
2022/10/26 03:45:23;;;;;;;9.07;5.47;;;19.20;61.10;;;;;;5092635;28;20035;-84
2022/10/26 03:47:49;;;;;;;8.10;5.80;;;18.60;63.00;;;;;;5095990;28;20093;-84
2022/10/26 03:50:18;;;;;;;8.23;5.10;;;18.50;63.10;;;;;;5106402;28;20109;-84
2022/10/26 03:52:46;;;;;;;9.60;5.57;;;18.40;63.70;;;;;;5103240;28;20458;-85
2022/10/26 03:55:11;;;;;;;8.70;5.90;;;18.20;64.40;;;;;;5103395;28;20032;-85
2022/10/26 03:57:43;;;;;;;8.15;5.30;;;18.10;64.80;;;;;;5104803;28;20028;-86
2022/10/26 04:00:16;;;;;;;10.65;5.60;;;18.30;63.20;;;;;;5095684;28;20119;-86
2022/10/26 04:02:45;;;;;;;8.15;5.30;;;17.80;64.70;;;;;;5100695;28;20027;-86
2022/10/26 04:05:11;;;;;;;10.07;5.55;;;17.70;63.30;;;;;;5107428;28;20031;-86
2022/10/26 04:07:36;;;;;;;8.60;5.75;;;17.80;63.00;;;;;;5113696;28;20016;-86
2022/10/26 04:10:03;;;;;;;9.32;5.72;;;18.00;61.90;;;;;;5095869;28;20024;-86
2022/10/26 04:12:30;;;;;;;12.00;7.45;;;18.30;61.50;;;;;;5098726;28;20068;-86
2022/10/26 04:14:57;;;;;;;8.63;6.07;;;18.40;61.00;;;;;;5115091;28;20020;-87
2022/10/26 04:17:23;;;;;;;13.93;7.13;;;18.40;60.90;;;;;;5106684;28;20015;-86
2022/10/26 04:19:49;;;;;;;8.98;5.80;;;18.50;60.40;;;;;;5094415;28;20024;-85
2022/10/26 04:22:15;;;;;;;9.07;5.50;;;18.30;60.40;;;;;;5102602;28;20044;-87
2022/10/26 04:24:40;;;;;;;14.27;6.70;;;18.00;61.30;;;;;;5095170;28;20119;-85
2022/10/26 04:27:06;;;;;;;14.73;7.88;;;17.90;61.30;;;;;;5094009;28;20051;-86
2022/10/26 04:29:31;;;;;;;13.50;7.28;;;17.90;61.70;;;;;;5095965;28;20165;-88
2022/10/26 04:31:57;;;;;;;20.77;7.32;;;17.80;61.90;;;;;;5105774;28;20054;-85
2022/10/26 04:34:23;;;;;;;24.60;8.20;;;17.90;62.20;;;;;;5113915;28;20023;-84
2022/10/26 04:36:48;;;;;;;25.45;8.25;;;18.00;61.90;;;;;;5109192;28;20070;-85
2022/10/26 04:39:14;;;;;;;16.48;8.25;;;18.20;61.70;;;;;;5129846;27;20027;-84
2022/10/26 04:41:40;;;;;;;28.17;9.05;;;18.40;61.40;;;;;;5117692;27;20022;-84
2022/10/26 04:44:05;;;;;;;32.55;7.38;;;18.40;61.20;;;;;;5105429;28;20034;-85
2022/10/26 04:46:31;;;;;;;52.38;9.23;;;18.40;61.60;;;;;;5094816;28;20366;-85
2022/10/26 04:48:57;;;;;;;79.65;9.43;;;18.20;61.90;;;;;;5093837;28;20023;-87
2022/10/26 04:51:22;;;;;;;63.80;10.27;;;18.20;61.30;;;;;;5095109;28;20016;-85
2022/10/26 04:53:48;;;;;;;61.90;9.60;;;18.10;61.10;;;;;;5108570;28;20028;-88
2022/10/26 04:56:13;;;;;;;54.88;9.85;;;18.00;61.30;;;;;;5081831;27;20028;-84
2022/10/26 04:58:39;;;;;;;30.60;9.88;;;18.00;61.20;;;;;;5134944;27;20023;-84
2022/10/26 05:01:05;;;;;;;39.38;8.43;;;18.10;61.20;;;;;;5100590;28;20469;-87
2022/10/26 05:03:30;;;;;;;23.52;7.95;;;18.00;61.20;;;;;;5104447;28;20028;-87
2022/10/26 05:06:24;;;;;;;38.10;8.60;;;17.90;61.50;;;;;;5113596;28;20019;-85
2022/10/26 05:08:51;;;;;;;26.73;8.23;;;17.90;61.40;;;;;;5094865;28;20045;-86
2022/10/26 05:14:44;;;;;;;24.20;6.90;;;18.00;61.20;;;;;;5114960;28;20485;-87
2022/10/26 05:17:10;;;;;;;17.33;6.60;;;17.80;61.20;;;;;;5114380;28;20102;-86
2022/10/26 05:19:36;;;;;;;12.18;6.90;;;17.90;61.30;;;;;;5107014;28;20534;-85
2022/10/26 05:22:02;;;;;;;27.90;8.88;;;18.00;61.00;;;;;;5113788;28;20043;-88
2022/10/26 05:24:27;;;;;;;16.65;7.32;;;18.00;61.10;;;;;;5096240;28;20394;-86
2022/10/26 05:26:58;;;;;;;35.10;8.15;;;18.00;61.10;;;;;;5096074;28;20019;-85
2022/10/26 05:29:23;;;;;;;15.82;7.80;;;18.10;60.90;;;;;;5095557;28;20028;-85
2022/10/26 05:31:50;;;;;;;9.45;6.50;;;18.20;61.00;;;;;;5096789;28;20031;-86
2022/10/26 05:34:15;;;;;;;32.47;8.45;;;17.90;61.90;;;;;;5096062;28;20020;-85
2022/10/26 05:36:41;;;;;;;52.75;9.88;;;17.80;61.90;;;;;;5095939;28;20047;-85
2022/10/26 05:39:07;;;;;;;23.10;8.25;;;17.90;61.70;;;;;;5114430;28;20034;-85
2022/10/26 05:41:32;;;;;;;33.03;8.07;;;18.00;61.70;;;;;;5114104;28;20106;-84
2022/10/26 05:43:58;;;;;;;47.78;8.90;;;18.10;61.60;;;;;;5114125;28;20031;-87
2022/10/26 05:46:25;;;;;;;45.60;9.68;;;18.20;61.40;;;;;;5095198;28;20118;-85
2022/10/26 05:48:51;;;;;;;36.17;8.98;;;18.30;61.20;;;;;;5110787;28;20031;-84
2022/10/26 05:51:17;;;;;;;29.23;8.68;;;18.10;61.70;;;;;;5111879;28;20476;-84
2022/10/26 05:53:42;;;;;;;24.92;8.93;;;18.10;61.60;;;;;;5111727;28;20028;-85
2022/10/26 05:56:19;;;;;;;35.47;8.88;;;18.10;61.60;;;;;;5094248;28;20024;-86
2022/10/26 05:58:46;;;;;;;38.20;10.60;;;18.10;61.60;;;;;;5094656;28;20023;-85
2022/10/26 06:01:43;;;;;;;35.20;9.27;;;18.20;61.80;;;;;;5112730;28;20034;-85
2022/10/26 06:04:37;;;;;;;25.90;10.30;;;18.30;61.80;;;;;;5091552;28;20046;-85
2022/10/26 06:07:12;;;;;;;26.42;9.93;;;18.30;61.70;;;;;;5094829;28;20497;-86
2022/10/26 06:09:39;;;;;;;27.25;9.68;;;18.30;61.80;;;;;;5093940;28;20462;-86
2022/10/26 06:12:06;;;;;;;46.95;12.85;;;18.30;61.80;;;;;;5112752;28;20020;-86
2022/10/26 06:14:33;;;;;;;60.47;12.75;;;18.30;61.90;;;;;;5095803;28;20030;-85
2022/10/26 06:17:34;;;;;;;28.88;11.38;;;18.40;61.70;;;;;;5113883;28;20103;-89
2022/10/26 06:20:25;;;;;;;35.50;11.93;;;18.50;61.90;;;;;;5113979;28;20032;-86
2022/10/26 06:22:51;;;;;;;17.63;10.52;;;18.30;62.50;;;;;;5089185;28;20044;-87
2022/10/26 06:25:56;;;;;;;19.60;9.13;;;17.80;63.80;;;;;;5094687;28;20043;-87
2022/10/26 06:28:42;;;;;;;48.25;11.13;;;17.00;65.60;;;;;;5011320;28;20041;-85
2022/10/26 06:31:27;;;;;;;24.58;10.57;;;17.00;66.00;;;;;;4993176;28;20041;-88
2022/10/26 06:40:40;;;;;;;14.95;9.00;;;16.00;68.50;;;;;;5014112;28;20036;-85
2022/10/26 06:48:28;;;;;;;22.35;13.80;;;15.00;72.70;;;;;;5068176;28;20060;-84
2022/10/26 06:50:54;;;;;;;17.63;11.93;;;15.00;73.30;;;;;;5048663;28;20035;-85
2022/10/26 06:53:35;;;;;;;24.52;11.88;;;15.10;73.50;;;;;;5067260;28;20044;-84
2022/10/26 06:56:01;;;;;;;27.00;11.23;;;14.90;73.50;;;;;;5057592;28;20016;-85
2022/10/26 06:58:33;;;;;;;39.42;14.93;;;14.80;74.50;;;;;;5075042;28;20048;-84
2022/10/26 07:00:59;;;;;;;60.22;16.85;;;15.00;76.00;;;;;;5057187;28;20017;-83
2022/10/26 07:03:25;;;;;;;37.53;18.77;;;15.90;73.40;;;;;;5076304;28;20028;-84
2022/10/26 07:05:51;;;;;;;48.63;19.17;;;16.70;71.50;;;;;;5058222;28;20017;-83
2022/10/26 07:08:17;;;;;;;28.77;14.95;;;17.20;70.00;;;;;;5075025;28;20021;-85
2022/10/26 07:10:43;;;;;;;25.90;12.20;;;17.50;68.20;;;;;;5075615;28;20051;-85
2022/10/26 07:13:09;;;;;;;18.05;11.77;;;17.10;68.00;;;;;;5057481;28;20363;-84
2022/10/26 07:15:36;;;;;;;16.55;10.93;;;16.60;70.30;;;;;;5076034;28;20064;-83
2022/10/26 07:18:06;;;;;;;15.15;10.95;;;16.30;71.40;;;;;;5075347;28;20379;-84
2022/10/26 07:20:36;;;;;;;15.05;10.98;;;16.40;71.50;;;;;;5057074;28;20028;-84
2022/10/26 07:23:01;;;;;;;15.25;10.85;;;16.50;71.70;;;;;;5056107;28;20024;-84
2022/10/26 07:25:27;;;;;;;17.58;11.10;;;16.70;70.50;;;;;;5056654;28;20348;-84
2022/10/26 07:27:59;;;;;;;23.65;13.40;;;17.10;70.20;;;;;;5074886;28;20038;-84
2022/10/26 07:30:26;;;;;;;14.38;10.20;;;17.20;71.10;;;;;;5075014;28;20103;-84
2022/10/26 07:33:18;;;;;;;23.40;10.73;;;17.30;68.70;;;;;;5053999;28;20024;-82
2022/10/26 07:35:44;;;;;;;16.98;11.50;;;16.70;71.30;;;;;;5070760;28;20103;-82
2022/10/26 07:38:12;;;;;;;18.30;11.80;;;16.60;72.40;;;;;;5076356;28;20043;-83
2022/10/26 07:40:38;;;;;;;15.48;10.75;;;16.50;72.70;;;;;;5074718;28;20020;-82
2022/10/26 07:43:04;;;;;;;13.68;10.07;;;16.40;73.10;;;;;;5075743;28;20017;-83
2022/10/26 07:45:30;;;;;;;13.65;10.52;;;16.30;71.90;;;;;;5074457;28;20050;-83
2022/10/26 07:47:56;;;;;;;16.25;10.27;;;15.80;74.50;;;;;;5057566;28;20040;-80
2022/10/26 07:50:22;;;;;;;17.55;11.80;;;15.80;75.40;;;;;;5056869;28;20024;-81
2022/10/26 07:52:48;;;;;;;17.10;12.35;;;16.40;75.20;;;;;;5074200;28;20036;-81
2022/10/26 07:55:14;;;;;;;18.13;13.75;;;17.10;73.40;;;;;;5075333;28;20024;-81
2022/10/26 07:57:40;;;;;;;18.90;14.35;;;18.00;70.70;;;;;;5055567;28;20474;-82
2022/10/26 08:00:08;;;;;;;21.48;16.55;;;18.40;69.80;;;;;;5073061;28;20052;-83
2022/10/26 08:02:34;;;;;;;20.38;15.57;;;18.90;68.40;;;;;;5056804;28;20497;-81
2022/10/26 08:05:00;;;;;;;21.02;14.23;;;19.30;67.20;;;;;;5056859;28;20063;-83
2022/10/26 08:07:26;;;;;;;23.90;16.15;;;18.90;67.70;;;;;;5074267;28;20033;-85
2022/10/26 08:09:52;;;;;;;20.05;15.52;;;18.40;69.30;;;;;;5071935;28;20044;-82
2022/10/26 08:12:18;;;;;;;24.67;16.60;;;18.10;69.80;;;;;;5057026;28;20052;-82
2022/10/26 08:14:44;;;;;;;26.17;16.48;;;17.70;70.50;;;;;;5074176;28;20013;-82
2022/10/26 08:17:10;;;;;;;27.25;17.60;;;17.80;69.90;;;;;;5053322;28;20058;-81
2022/10/26 08:19:36;;;;;;;27.55;20.27;;;17.70;70.50;;;;;;4374305;28;10021812;-85
2022/10/26 08:22:01;;;;;;;26.95;19.77;;;17.70;70.60;;;;;;5054757;28;20374;-79
2022/10/26 08:24:28;;;;;;;28.90;20.33;;;17.70;71.10;;;;;;5071709;28;20505;-81
2022/10/26 08:26:53;;;;;;;30.27;20.98;;;17.80;70.60;;;;;;5054308;28;20020;-80
2022/10/26 08:29:19;;;;;;;26.77;20.60;;;18.30;70.60;;;;;;5054991;28;20360;-80
2022/10/26 08:31:47;;;;;;;35.78;21.88;;;19.10;69.00;;;;;;5071228;28;20426;-82
2022/10/26 08:34:12;;;;;;;25.67;19.17;;;19.80;67.60;;;;;;5053883;28;20016;-81
2022/10/26 08:36:38;;;;;;;25.95;18.35;;;20.00;65.50;;;;;;5071457;28;20593;-80
2022/10/26 08:39:04;;;;;;;27.90;19.40;;;19.90;67.30;;;;;;5054002;28;20471;-81
2022/10/26 08:41:41;;;;;;;26.55;18.88;;;19.90;68.40;;;;;;5055063;28;20031;-78
2022/10/26 08:44:32;;;;;;;23.77;17.30;;;20.20;67.10;;;;;;5073159;28;20051;-84
2022/10/26 08:47:05;;;;;;;23.42;17.30;;;20.60;67.00;;;;;;5043986;28;20040;-77
2022/10/26 08:49:57;;;;;;;19.85;15.27;;;21.10;66.00;;;;;;5071916;28;20199;-77
2022/10/26 08:52:31;;;;;;;19.42;14.55;;;20.90;66.00;;;;;;5071171;28;20069;-81
2022/10/26 08:54:59;;;;;;;20.08;15.38;;;21.10;65.10;;;;;;5053441;28;20023;-82
2022/10/26 08:57:35;;;;;;;19.95;14.20;;;20.70;65.80;;;;;;5070688;28;20017;-78
2022/10/26 09:00:22;;;;;;;18.98;14.73;;;20.00;67.70;;;;;;5071647;28;20028;-80
2022/10/26 09:02:52;;;;;;;20.27;14.98;;;19.80;68.90;;;;;;5071228;28;20016;-79
2022/10/26 09:05:23;;;;;;;22.75;13.38;;;20.40;67.50;;;;;;5052868;28;20135;-79
2022/10/26 09:08:10;;;;;;;20.17;14.77;;;20.70;66.90;;;;;;5071587;28;20017;-80
2022/10/26 09:10:40;;;;;;;21.05;14.23;;;21.30;66.40;;;;;;5054052;28;20086;-76
2022/10/26 09:13:26;;;;;;;22.73;14.68;;;21.90;64.60;;;;;;5053512;28;20031;-78
2022/10/26 09:15:55;;;;;;;25.52;14.63;;;21.90;65.00;;;;;;5072245;28;20021;-82
2022/10/26 09:18:37;;;;;;;25.60;15.18;;;22.10;64.30;;;;;;5054412;28;20363;-82
2022/10/26 09:21:22;;;;;;;22.33;14.60;;;22.40;63.60;;;;;;5070927;28;20036;-80
2022/10/26 09:24:01;;;;;;;22.38;14.27;;;22.70;63.30;;;;;;5071322;28;20024;-80
2022/10/26 09:26:47;;;;;;;18.23;13.80;;;23.00;62.80;;;;;;5053762;28;20439;-82
2022/10/26 09:29:13;;;;;;;19.23;14.27;;;23.10;62.80;;;;;;5055149;28;20024;-78
2022/10/26 09:31:43;;;;;;;18.13;14.35;;;22.70;63.30;;;;;;5055421;28;20525;-78
2022/10/26 09:34:19;;;;;;;20.73;15.23;;;22.50;63.80;;;;;;5073601;28;20012;-85
2022/10/26 09:36:45;;;;;;;22.25;14.48;;;22.80;63.40;;;;;;5073597;28;20028;-82
2022/10/26 09:39:21;;;;;;;21.13;15.20;;;23.20;62.90;;;;;;5073733;28;20468;-81
2022/10/26 09:42:09;;;;;;;20.60;15.05;;;23.40;61.80;;;;;;5073243;28;20016;-82
2022/10/26 09:44:50;;;;;;;19.30;15.05;;;23.50;61.90;;;;;;5052196;28;20040;-81
2022/10/26 09:47:24;;;;;;;20.17;14.82;;;23.10;62.60;;;;;;5055359;28;20068;-82
2022/10/26 09:50:01;;;;;;;18.63;14.23;;;23.30;62.90;;;;;;5072790;28;20020;-81
2022/10/26 09:52:26;;;;;;;20.80;15.60;;;23.60;62.20;;;;;;5072767;28;20486;-81
2022/10/26 09:54:52;;;;;;;18.73;13.38;;;23.90;61.70;;;;;;5072752;28;20024;-81
2022/10/26 09:57:19;;;;;;;18.70;13.55;;;24.20;61.30;;;;;;5071044;28;20059;-82
2022/10/26 09:59:51;;;;;;;45.33;40.97;;;24.40;60.70;;;;;;5070797;28;20024;-81
2022/10/26 10:02:35;;;;;;;21.77;13.98;;;24.40;60.80;;;;;;5071185;28;20078;-82
2022/10/26 10:05:19;;;;;;;18.05;13.35;;;24.50;60.90;;;;;;5053274;28;20073;-82
2022/10/26 10:07:44;;;;;;;14.80;12.52;;;24.60;60.50;;;;;;5070824;28;20021;-82
2022/10/26 10:10:21;;;;;;;17.27;12.07;;;24.70;60.40;;;;;;5071781;28;20035;-82
2022/10/26 10:12:51;;;;;;;17.73;12.98;;;24.80;60.20;;;;;;5055224;28;20020;-82
2022/10/26 10:15:21;;;;;;;21.33;13.35;;;24.60;60.20;;;;;;5056582;28;20520;-82
2022/10/26 10:17:49;;;;;;;16.98;12.23;;;24.60;60.40;;;;;;5076742;28;20028;-82
2022/10/26 10:20:21;;;;;;;18.60;13.18;;;24.70;60.40;;;;;;5059977;28;20035;-82
2022/10/26 10:22:58;;;;;;;19.33;12.15;;;24.70;60.50;;;;;;5058821;28;20020;-82
2022/10/26 10:25:34;;;;;;;16.75;12.40;;;24.90;60.40;;;;;;5076685;28;20069;-82
2022/10/26 10:28:00;;;;;;;17.45;12.15;;;24.90;59.60;;;;;;5076838;28;20015;-82
2022/10/26 10:30:32;;;;;;;15.80;12.20;;;24.70;60.00;;;;;;5076549;28;20024;-82
2022/10/26 10:33:09;;;;;;;17.08;11.93;;;24.90;59.90;;;;;;5075627;28;20024;-82
2022/10/26 10:35:36;;;;;;;20.30;12.35;;;25.00;59.90;;;;;;5058588;28;20017;-82
2022/10/26 10:38:02;;;;;;;16.85;12.35;;;25.20;59.60;;;;;;5076692;28;20432;-82
2022/10/26 10:40:30;;;;;;;15.77;11.27;;;25.30;60.20;;;;;;5075250;28;20070;-82
2022/10/26 10:43:13;;;;;;;16.20;12.82;;;25.40;60.30;;;;;;5058275;28;20060;-82
2022/10/26 10:45:39;;;;;;;16.10;10.25;;;25.50;59.80;;;;;;5058575;28;20028;-82
2022/10/26 10:48:11;;;;;;;17.45;10.38;;;25.40;59.70;;;;;;5058085;28;20033;-82
2022/10/26 10:50:48;;;;;;;13.40;9.95;;;25.30;60.00;;;;;;5076511;28;20025;-83
2022/10/26 10:53:22;;;;;;;13.68;10.05;;;25.50;60.30;;;;;;5076477;28;20400;-82
2022/10/26 10:56:04;;;;;;;13.55;10.48;;;25.50;59.80;;;;;;5076096;28;20027;-82
2022/10/26 10:58:43;;;;;;;17.58;10.85;;;25.20;60.60;;;;;;5076171;28;20021;-81
2022/10/26 11:01:13;;;;;;;13.65;10.52;;;24.90;61.10;;;;;;5074865;28;20031;-82
2022/10/26 11:03:46;;;;;;;14.05;10.38;;;24.90;61.10;;;;;;5075981;28;20056;-81
2022/10/26 11:06:16;;;;;;;14.25;10.00;;;25.20;61.00;;;;;;5057741;28;20024;-82
2022/10/26 11:08:42;;;;;;;13.10;9.70;;;25.50;61.00;;;;;;5058394;28;20055;-81
2022/10/26 11:11:34;;;;;;;15.63;10.32;;;25.60;60.30;;;;;;5058221;28;20025;-80
2022/10/26 11:14:18;;;;;;;14.35;10.43;;;25.50;60.00;;;;;;5047341;28;20077;-80
2022/10/26 11:16:56;;;;;;;13.73;9.98;;;25.50;60.90;;;;;;5057734;28;20028;-81
2022/10/26 11:19:39;;;;;;;21.50;12.40;;;25.40;60.30;;;;;;5057948;28;20021;-81
2022/10/26 11:22:10;;;;;;;15.27;10.23;;;25.20;60.40;;;;;;5057924;28;20020;-81
2022/10/26 11:24:55;;;;;;;17.42;10.95;;;25.30;60.70;;;;;;5075705;28;20044;-82
2022/10/26 11:27:38;;;;;;;14.95;11.13;;;25.30;60.70;;;;;;4373125;28;10000686;-81
2022/10/26 11:30:18;;;;;;;18.55;10.65;;;25.50;60.70;;;;;;5074493;28;20030;-81
2022/10/26 11:33:10;;;;;;;14.38;10.65;;;25.70;60.10;;;;;;5057746;28;20406;-81
2022/10/26 11:35:47;;;;;;;18.35;11.02;;;25.80;60.00;;;;;;5046762;28;20032;-81
2022/10/26 11:38:36;;;;;;;18.23;11.38;;;26.00;59.90;;;;;;5057797;28;20039;-81
2022/10/26 11:41:29;;;;;;;13.10;9.65;;;26.00;60.10;;;;;;5074365;28;20439;-82
2022/10/26 11:44:22;;;;;;;11.82;9.05;;;25.80;60.30;;;;;;5057578;28;20150;-84
2022/10/26 11:47:14;;;;;;;12.07;9.38;;;25.70;60.50;;;;;;5075602;28;20033;-82
2022/10/26 11:50:13;;;;;;;14.75;9.50;;;25.50;60.70;;;;;;5059358;28;20024;-83
2022/10/26 11:52:48;;;;;;;13.40;8.55;;;25.40;60.60;;;;;;5074393;28;20029;-81
2022/10/26 11:55:14;;;;;;;11.10;8.52;;;25.40;60.80;;;;;;5075271;28;20107;-81
2022/10/26 11:57:40;;;;;;;13.68;8.63;;;25.50;61.20;;;;;;5076192;28;20096;-80
2022/10/26 12:00:19;;;;;;;14.65;8.75;;;25.50;60.50;;;;;;5075274;28;20107;-81
2022/10/26 12:03:10;;;;;;;15.32;8.52;;;25.70;60.60;;;;;;5057287;28;20103;-81
2022/10/26 12:05:39;;;;;;;12.07;7.63;;;25.80;60.50;;;;;;5073879;28;20498;-81
2022/10/26 12:08:17;;;;;;;12.40;7.00;;;26.00;59.10;;;;;;5057259;28;20052;-81
2022/10/26 12:10:51;;;;;;;10.27;6.50;;;26.10;59.20;;;;;;5057073;28;20027;-81
2022/10/26 12:13:38;;;;;;;10.50;6.72;;;26.20;58.80;;;;;;5057032;28;20028;-81
2022/10/26 12:16:46;;;;;;;11.88;6.30;;;26.30;58.50;;;;;;5057038;28;20021;-83
2022/10/26 12:19:30;;;;;;;9.07;5.78;;;26.30;58.10;;;;;;4977069;28;20137;-83
2022/10/26 12:21:56;;;;;;;8.95;5.85;;;26.40;57.80;;;;;;4993085;28;20069;-82
2022/10/26 12:24:22;;;;;;;10.40;5.80;;;26.30;57.90;;;;;;4977028;28;20134;-81
2022/10/26 12:26:57;;;;;;;10.13;5.72;;;26.00;59.40;;;;;;4977303;28;20018;-82
2022/10/26 12:29:26;;;;;;;7.55;4.13;;;25.80;58.40;;;;;;4976804;28;20027;-82
2022/10/26 12:31:51;;;;;;;9.70;4.72;;;25.50;56.50;;;;;;4977080;28;20451;-82
2022/10/26 12:34:29;;;;;;;9.35;5.60;;;25.40;58.90;;;;;;4976979;28;20525;-82
2022/10/26 12:36:54;;;;;;;9.15;5.90;;;25.10;60.10;;;;;;4976510;28;20074;-82
2022/10/26 12:39:30;;;;;;;8.50;5.57;;;24.80;62.10;;;;;;4976478;28;20117;-82
2022/10/26 12:42:05;;;;;;;10.57;5.50;;;24.70;62.00;;;;;;4992924;28;20033;-82
2022/10/26 12:44:32;;;;;;;10.48;5.90;;;24.90;61.60;;;;;;4993315;28;20040;-82
2022/10/26 12:46:58;;;;;;;8.85;5.55;;;25.00;61.20;;;;;;4976415;28;20046;-82
2022/10/26 12:50:01;;;;;;;9.38;5.45;;;25.10;60.90;;;;;;4976806;28;20034;-82
2022/10/26 12:52:56;;;;;;;8.10;5.22;;;25.30;60.50;;;;;;4992956;28;20038;-82
2022/10/26 12:55:44;;;;;;;9.30;4.75;;;25.50;59.60;;;;;;5012384;28;20032;-82
2022/10/26 12:58:28;;;;;;;7.15;5.03;;;25.50;59.70;;;;;;5056269;28;20023;-82
2022/10/26 13:00:59;;;;;;;8.30;5.10;;;25.50;60.60;;;;;;5073812;28;20031;-81
2022/10/26 13:03:47;;;;;;;12.00;6.03;;;25.50;60.50;;;;;;5056134;28;20363;-82
2022/10/26 13:06:43;;;;;;;12.30;6.25;;;25.50;61.20;;;;;;5056079;28;20516;-82
2022/10/26 13:09:21;;;;;;;15.75;6.32;;;25.60;60.20;;;;;;5073981;28;20020;-82
2022/10/26 13:11:51;;;;;;;9.18;5.22;;;25.70;59.50;;;;;;5055913;28;20408;-82
2022/10/26 13:14:28;;;;;;;6.90;4.85;;;25.60;62.50;;;;;;5073988;28;20020;-82
2022/10/26 13:16:54;;;;;;;9.23;4.53;;;25.20;62.90;;;;;;5075395;28;20028;-80